Time;durP1;ratioP1;P1;durP2;ratioP2;P2;SDS_P1;SDS_P2;PMS_P1;PMS_P2;Temp;Humidity;BMP_temperature;BMP_pressure;BME280_temperature;BME280_humidity;BME280_pressure;Samples;Min_cycle;Max_cycle;Signal;HPM_P1;HPM_P2
2024/01/10 00:00:39;;;;;;;6.70;2.50;;;;;;;-146.27;57.61;47296.31;5052286;28;20063;-73
2024/01/10 00:03:04;;;;;;;4.32;2.47;;;;;;;-146.27;57.97;47316.22;5063513;28;20040;-72
2024/01/10 00:05:29;;;;;;;4.40;2.78;;;;;;;-146.27;58.63;47312.25;5062019;28;20089;-72
2024/01/10 00:07:55;;;;;;;8.10;3.05;;;;;;;-146.27;59.10;47292.34;5066423;28;20024;-74
2024/01/10 00:10:21;;;;;;;5.50;2.78;;;;;;;-146.27;59.44;47300.31;5059144;28;20031;-73
2024/01/10 00:12:47;;;;;;;7.25;3.35;;;;;;;-146.27;59.92;47288.34;5070694;28;20030;-74
2024/01/10 00:15:12;;;;;;;8.88;3.00;;;;;;;-146.27;60.51;47280.38;5059391;28;20104;-72
2024/01/10 00:17:40;;;;;;;5.22;2.63;;;;;;;-146.27;59.87;47286.38;5059731;28;20075;-74
2024/01/10 00:20:06;;;;;;;4.22;2.33;;;;;;;-146.27;61.06;47296.31;5070887;28;20025;-74
2024/01/10 00:22:32;;;;;;;6.10;3.17;;;;;;;-146.27;60.74;47308.25;5058053;28;20064;-72
2024/01/10 00:24:57;;;;;;;6.47;3.30;;;;;;;-146.27;60.27;47294.31;5067379;28;20107;-73
2024/01/10 00:27:22;;;;;;;6.72;2.90;;;;;;;-146.27;60.34;47274.41;5062835;28;20016;-73
2024/01/10 00:29:48;;;;;;;5.95;2.78;;;;;;;-146.27;59.98;47288.34;5051255;28;20021;-72
2024/01/10 00:32:13;;;;;;;4.60;3.05;;;;;;;-146.27;60.48;47294.31;5064292;28;20025;-72
2024/01/10 00:34:39;;;;;;;5.43;3.15;;;;;;;-146.27;60.35;47306.28;5065775;28;20048;-73
2024/01/10 00:37:04;;;;;;;8.27;3.22;;;;;;;-146.27;60.56;47262.47;5056799;28;20039;-73
2024/01/10 00:39:29;;;;;;;6.63;3.70;;;;;;;-146.27;60.51;47260.47;5068134;28;20024;-73
2024/01/10 00:41:55;;;;;;;6.03;3.30;;;;;;;-146.27;60.30;47262.47;5067610;28;20068;-73
2024/01/10 00:44:20;;;;;;;8.00;3.05;;;;;;;-146.27;60.07;47296.31;5068216;28;20025;-72
2024/01/10 00:46:45;;;;;;;6.28;3.00;;;;;;;-146.27;59.53;47256.50;5067000;28;20044;-73
2024/01/10 00:49:11;;;;;;;4.82;2.83;;;;;;;-146.27;59.61;47276.41;5072347;28;20031;-74
2024/01/10 00:51:36;;;;;;;4.75;2.88;;;;;;;-146.27;59.68;47274.41;5057374;28;20028;-72
2024/01/10 00:54:02;;;;;;;5.90;2.80;;;;;;;-146.27;59.66;47286.38;5076839;28;20025;-72
2024/01/10 00:56:27;;;;;;;4.97;2.75;;;;;;;-146.27;59.64;47264.47;5071852;28;20031;-75
2024/01/10 00:58:57;;;;;;;4.80;2.55;;;;;;;-146.27;59.85;47262.47;5069406;28;20035;-74
2024/01/10 01:01:23;;;;;;;6.65;2.88;;;;;;;-146.27;59.38;47244.53;5068487;28;20052;-74
2024/01/10 01:03:48;;;;;;;4.32;2.47;;;;;;;-146.27;59.42;47244.53;5075803;28;20495;-74
2024/01/10 01:06:14;;;;;;;5.97;2.95;;;;;;;-146.27;59.05;47244.53;5075093;28;20037;-73
2024/01/10 01:08:40;;;;;;;6.93;2.97;;;;;;;-146.27;59.10;47250.53;5048263;28;20029;-74
2024/01/10 01:11:05;;;;;;;3.58;2.35;;;;;;;-146.27;58.87;47278.41;5054349;28;20467;-73
2024/01/10 01:13:31;;;;;;;8.85;3.05;;;;;;;-146.27;59.04;47296.31;5049007;28;20389;-74
2024/01/10 01:15:56;;;;;;;6.10;2.60;;;;;;;-146.27;59.11;47272.44;5063051;28;20096;-73
2024/01/10 01:18:21;;;;;;;6.00;2.67;;;;;;;-146.27;59.38;47256.50;5050452;28;20504;-74
2024/01/10 01:20:48;;;;;;;4.13;2.50;;;;;;;-146.27;59.03;47278.41;5068347;28;20032;-73
2024/01/10 01:23:14;;;;;;;6.10;2.58;;;;;;;-146.27;58.53;47280.38;5064972;28;20040;-74
2024/01/10 01:25:39;;;;;;;6.97;2.92;;;;;;;-146.27;59.08;47276.41;5062643;28;20025;-75
2024/01/10 01:28:05;;;;;;;4.55;2.92;;;;;;;-146.27;58.76;47300.31;5070025;28;20463;-73
2024/01/10 01:30:30;;;;;;;7.13;3.00;;;;;;;-146.27;58.72;47264.47;5052549;28;20494;-73
2024/01/10 01:32:56;;;;;;;7.72;2.90;;;;;;;-146.27;58.21;47294.31;5056664;28;20039;-73
2024/01/10 01:35:22;;;;;;;4.72;2.75;;;;;;;-146.27;58.76;47276.41;5060523;28;20494;-72
2024/01/10 01:37:48;;;;;;;5.75;3.03;;;;;;;-146.27;58.72;47248.53;5066601;28;20028;-73
2024/01/10 01:40:13;;;;;;;4.95;3.05;;;;;;;-146.27;59.93;47292.34;5067092;28;20093;-72
2024/01/10 01:42:39;;;;;;;6.80;2.53;;;;;;;-146.27;59.81;47272.44;5057876;28;20020;-73
2024/01/10 01:45:04;;;;;;;4.50;2.58;;;;;;;-146.27;60.20;47268.44;5061181;28;20099;-73
2024/01/10 01:47:30;;;;;;;3.47;2.58;;;;;;;-146.27;60.26;47268.44;5066729;28;20128;-74
2024/01/10 01:49:56;;;;;;;5.10;2.95;;;;;;;-146.27;61.04;47250.53;5064916;28;20016;-72
2024/01/10 01:52:22;;;;;;;4.53;2.83;;;;;;;-146.27;60.80;47276.41;5062637;28;20032;-74
2024/01/10 01:54:48;;;;;;;5.75;2.67;;;;;;;-146.27;60.46;47266.44;5057430;28;20103;-72
2024/01/10 01:57:13;;;;;;;5.82;2.83;;;;;;;-146.27;60.63;47276.41;5064680;28;20078;-73
2024/01/10 01:59:39;;;;;;;6.43;3.67;;;;;;;-146.27;60.50;47256.50;5070057;28;20396;-73
2024/01/10 02:02:05;;;;;;;5.53;2.92;;;;;;;-146.27;60.45;47268.44;5068083;28;20052;-73
2024/01/10 02:04:31;;;;;;;5.30;3.30;;;;;;;-146.27;60.87;47260.47;5069259;28;20055;-73
2024/01/10 02:06:57;;;;;;;7.97;3.33;;;;;;;-146.27;60.91;47240.56;5058663;28;20395;-72
2024/01/10 02:09:22;;;;;;;6.78;3.20;;;;;;;-146.27;60.94;47268.44;5063109;28;20028;-74
2024/01/10 02:11:48;;;;;;;5.40;2.75;;;;;;;-146.27;62.72;47252.50;5060116;28;20187;-72
2024/01/10 02:14:14;;;;;;;6.38;2.85;;;;;;;-146.27;61.82;47288.34;5057728;28;20025;-72
2024/01/10 02:16:40;;;;;;;6.82;3.05;;;;;;;-146.27;61.59;47252.50;5067441;28;20024;-72
2024/01/10 02:19:22;;;;;;;9.18;3.60;;;;;;;-146.27;61.82;47288.34;5077952;28;20033;-73
2024/01/10 02:21:47;;;;;;;5.30;3.30;;;;;;;-146.27;62.40;47141.00;5072985;28;20028;-72
2024/01/10 02:24:13;;;;;;;9.05;3.70;;;;;;;-146.27;62.97;47119.09;5069159;28;20029;-73
2024/01/10 02:26:39;;;;;;;6.18;3.05;;;;;;;-146.27;63.43;47121.09;5070850;28;20170;-73
2024/01/10 02:29:05;;;;;;;5.78;3.40;;;;;;;-146.27;62.68;47125.09;5072953;28;20033;-72
2024/01/10 02:31:30;;;;;;;7.63;3.80;;;;;;;-146.27;63.11;47107.16;5079786;28;20024;-72
2024/01/10 02:33:56;;;;;;;7.50;4.30;;;;;;;-146.27;63.05;47087.25;5070667;28;20392;-72
2024/01/10 02:36:21;;;;;;;5.47;3.58;;;;;;;-146.27;63.04;47113.13;5069490;28;20810;-73
2024/01/10 02:38:47;;;;;;;9.52;4.00;;;;;;;-146.27;62.57;47113.13;5065810;28;20040;-72
2024/01/10 02:41:13;;;;;;;7.80;3.88;;;;;;;-146.27;63.10;47113.13;5066666;28;20039;-72
2024/01/10 02:43:39;;;;;;;6.28;3.70;;;;;;;-146.27;62.79;47127.06;5065264;28;20029;-71
2024/01/10 02:46:04;;;;;;;6.57;4.05;;;;;;;-146.27;63.26;47107.16;5059028;28;20054;-73
2024/01/10 02:48:30;;;;;;;7.55;4.50;;;;;;;-146.27;63.15;47079.28;5067537;28;20886;-72
2024/01/10 02:50:55;;;;;;;6.57;3.72;;;;;;;-146.27;62.98;47123.09;5072979;28;20025;-73
2024/01/10 02:53:21;;;;;;;12.98;4.55;;;;;;;-146.27;63.36;47123.09;5067376;28;20036;-74
2024/01/10 02:55:47;;;;;;;10.25;4.82;;;;;;;-146.27;63.31;47115.13;5071133;28;20025;-72
2024/01/10 02:58:13;;;;;;;9.55;4.68;;;;;;;-146.27;63.28;47097.19;5067602;28;20630;-72
2024/01/10 03:00:38;;;;;;;8.35;4.68;;;;;;;-146.27;63.21;47113.13;5067088;28;20136;-72
2024/01/10 03:03:04;;;;;;;7.97;4.18;;;;;;;-146.27;63.74;47101.19;5061376;28;20056;-72
2024/01/10 03:05:29;;;;;;;9.75;4.72;;;;;;;-146.27;64.26;47065.34;5059562;28;20028;-72
2024/01/10 03:07:55;;;;;;;6.70;4.43;;;;;;;-146.27;64.20;47101.19;5059042;28;20025;-73
2024/01/10 03:10:20;;;;;;;7.50;4.68;;;;;;;-146.27;64.57;47103.19;5065254;28;20021;-71
2024/01/10 03:12:46;;;;;;;7.88;4.78;;;;;;;-146.27;64.51;47095.22;5071345;28;20085;-71
2024/01/10 03:15:11;;;;;;;9.57;5.13;;;;;;;-146.27;64.46;47101.19;5056259;28;20404;-72
2024/01/10 03:17:37;;;;;;;7.88;4.55;;;;;;;-146.27;64.45;47089.25;5066435;28;20035;-72
2024/01/10 03:20:03;;;;;;;7.40;4.32;;;;;;;-146.27;65.03;47105.16;5069658;28;20020;-73
2024/01/10 03:22:30;;;;;;;6.50;4.28;;;;;;;-146.27;64.54;47105.16;5059383;28;20089;-71
2024/01/10 03:24:55;;;;;;;8.02;4.53;;;;;;;-146.27;65.06;47089.25;5070364;28;20035;-72
2024/01/10 03:27:21;;;;;;;7.75;4.65;;;;;;;-146.27;65.34;47101.19;5054363;28;20031;-72
2024/01/10 03:29:46;;;;;;;10.10;4.13;;;;;;;-146.27;65.23;47069.34;5067328;28;20027;-72
2024/01/10 03:32:11;;;;;;;9.32;4.90;;;;;;;-146.27;65.26;47081.28;5066358;28;20085;-74
2024/01/10 03:34:37;;;;;;;8.50;4.65;;;;;;;-146.27;65.21;47123.09;5064958;28;20105;-72
2024/01/10 03:37:02;;;;;;;8.18;5.05;;;;;;;-146.27;64.85;47099.19;5055735;28;20032;-72
2024/01/10 03:39:27;;;;;;;12.27;4.80;;;;;;;-146.27;64.72;47091.22;5056122;28;20036;-73
2024/01/10 03:41:53;;;;;;;7.20;4.60;;;;;;;-146.27;65.15;47091.22;5065861;28;20025;-71
2024/01/10 03:44:18;;;;;;;8.60;4.80;;;;;;;-146.27;64.77;47073.31;5083612;28;20529;-72
2024/01/10 03:46:44;;;;;;;9.57;5.18;;;;;;;-146.27;65.46;47067.34;5061224;28;20066;-72
2024/01/10 03:49:10;;;;;;;11.82;5.30;;;;;;;-146.27;65.98;47041.47;5066889;28;20037;-71
2024/01/10 03:51:35;;;;;;;8.02;4.72;;;;;;;-146.27;65.85;47061.38;5068618;28;20024;-72
2024/01/10 03:54:01;;;;;;;7.75;5.25;;;;;;;-146.27;65.37;47061.38;5070489;28;20523;-71
2024/01/10 03:56:26;;;;;;;7.80;4.55;;;;;;;-146.27;65.67;47093.22;5072826;28;20035;-71
2024/01/10 03:58:51;;;;;;;9.63;4.43;;;;;;;-146.27;65.40;47071.31;5065031;28;20081;-71
2024/01/10 04:01:21;;;;;;;9.85;5.10;;;;;;;-146.27;65.79;47069.34;5057760;28;20060;-71
2024/01/10 04:03:46;;;;;;;10.02;4.82;;;;;;;-146.27;65.51;47067.34;5065874;28;20070;-72
2024/01/10 04:06:12;;;;;;;11.07;4.95;;;;;;;-146.27;66.07;47061.38;5070518;28;20056;-72
2024/01/10 04:08:37;;;;;;;9.90;5.38;;;;;;;-146.27;65.69;47049.41;5068927;28;20028;-72
2024/01/10 04:11:03;;;;;;;8.88;5.05;;;;;;;-146.27;65.66;47057.38;5070628;28;20429;-73
2024/01/10 04:13:29;;;;;;;10.68;4.55;;;;;;;-146.27;65.23;47077.28;5068497;28;20036;-71
2024/01/10 04:15:54;;;;;;;12.30;5.65;;;;;;;-146.27;65.49;47065.34;5065132;28;20059;-72
2024/01/10 04:18:19;;;;;;;10.48;5.18;;;;;;;-146.27;65.04;47055.38;5061916;28;20029;-72
2024/01/10 04:20:45;;;;;;;6.63;4.07;;;;;;;-146.27;65.17;47069.34;5070909;28;20157;-73
2024/01/10 04:23:10;;;;;;;9.95;4.90;;;;;;;-146.27;65.19;47061.38;5056130;28;20033;-72
2024/01/10 04:25:36;;;;;;;9.10;4.15;;;;;;;-146.27;65.74;47053.41;5059449;28;20032;-71
2024/01/10 04:28:01;;;;;;;8.25;4.85;;;;;;;-146.27;65.23;47017.56;5070551;28;20032;-71
2024/01/10 04:30:27;;;;;;;9.00;4.90;;;;;;;-146.27;65.63;47045.44;5073725;28;20387;-71
2024/01/10 04:32:52;;;;;;;7.72;5.00;;;;;;;-146.27;65.40;47085.25;5068455;28;20024;-72
2024/01/10 04:35:17;;;;;;;8.02;3.83;;;;;;;-146.27;65.66;47069.34;5057067;28;20033;-73
2024/01/10 04:37:43;;;;;;;9.68;4.90;;;;;;;-146.27;64.99;47085.25;5058611;28;20103;-73
2024/01/10 04:40:08;;;;;;;8.13;4.55;;;;;;;-146.27;64.52;47053.41;5068424;28;20090;-72
2024/01/10 04:42:34;;;;;;;9.18;4.70;;;;;;;-146.27;64.37;47059.38;5064803;28;20496;-72
2024/01/10 04:44:59;;;;;;;8.55;5.07;;;;;;;-146.27;64.99;47013.59;5066814;28;20024;-72
2024/01/10 04:47:25;;;;;;;8.13;4.40;;;;;;;-146.27;64.81;47081.28;5065501;28;20029;-70
2024/01/10 04:49:50;;;;;;;10.80;4.97;;;;;;;-146.27;64.60;47073.31;5067705;28;20083;-73
2024/01/10 04:52:16;;;;;;;7.93;4.32;;;;;;;-146.27;64.71;47043.44;5067240;28;20024;-72
2024/01/10 04:54:41;;;;;;;7.97;4.40;;;;;;;-146.27;64.36;47069.34;5067322;28;20037;-72
2024/01/10 04:57:07;;;;;;;9.63;4.60;;;;;;;-146.27;64.03;47065.34;5055593;28;20048;-74
2024/01/10 04:59:33;;;;;;;7.88;4.32;;;;;;;-146.27;63.84;47049.41;5068134;28;20119;-71
2024/01/10 05:01:58;;;;;;;8.43;4.97;;;;;;;-146.27;63.94;47053.41;5056682;28;20072;-70
2024/01/10 05:04:24;;;;;;;9.13;4.72;;;;;;;-146.27;64.13;47045.44;5056817;28;20020;-71
2024/01/10 05:06:49;;;;;;;9.80;4.75;;;;;;;-146.27;64.05;47063.34;5066356;28;20021;-71
2024/01/10 05:09:16;;;;;;;10.13;5.18;;;;;;;-146.27;64.19;47061.38;5064894;28;20387;-74
2024/01/10 05:11:41;;;;;;;8.38;4.43;;;;;;;-146.27;64.10;47055.38;5066132;28;20431;-72
2024/01/10 05:14:07;;;;;;;10.23;4.93;;;;;;;-146.27;65.00;47053.41;5056483;28;20025;-73
2024/01/10 05:16:32;;;;;;;8.02;4.57;;;;;;;-146.27;64.86;47049.41;5062109;28;20028;-72
2024/01/10 05:19:02;;;;;;;9.73;4.75;;;;;;;-146.27;64.15;47069.34;5050723;28;20035;-72
2024/01/10 05:21:30;;;;;;;7.55;4.65;;;;;;;-146.27;64.34;47045.44;5065078;28;20032;-70
2024/01/10 05:23:55;;;;;;;7.03;4.68;;;;;;;-146.27;65.12;47069.34;5063258;28;20032;-72
2024/01/10 05:26:21;;;;;;;12.73;5.75;;;;;;;-146.27;65.17;47063.34;5058592;28;20334;-72
2024/01/10 05:28:46;;;;;;;9.52;4.75;;;;;;;-146.27;65.16;47057.38;5068619;28;20055;-72
2024/01/10 05:31:12;;;;;;;12.45;5.03;;;;;;;-146.27;66.11;47037.47;5069956;28;20048;-72
2024/01/10 05:33:37;;;;;;;10.77;5.68;;;;;;;-146.27;65.09;47061.38;5057050;28;20013;-73
2024/01/10 05:36:03;;;;;;;9.02;4.72;;;;;;;-146.27;65.60;47077.28;5070981;28;20021;-71
2024/01/10 05:38:28;;;;;;;10.57;5.30;;;;;;;-146.27;65.69;47037.47;5068966;28;20035;-71
2024/01/10 05:40:53;;;;;;;7.45;4.30;;;;;;;-146.27;65.15;47033.50;5070178;28;20108;-71
2024/01/10 05:43:19;;;;;;;9.98;5.25;;;;;;;-146.27;65.40;47045.44;5068150;28;20131;-71
2024/01/10 05:45:44;;;;;;;9.30;5.43;;;;;;;-146.27;64.64;47053.41;5067535;28;20070;-71
2024/01/10 05:48:10;;;;;;;9.63;5.40;;;;;;;-146.27;65.00;47045.44;5067219;28;20028;-70
2024/01/10 05:50:35;;;;;;;11.00;5.82;;;;;;;-146.27;64.63;47039.47;5064604;28;20027;-70
2024/01/10 05:53:00;;;;;;;10.52;5.30;;;;;;;-146.27;64.44;47071.31;5074778;28;20028;-72
2024/01/10 05:55:26;;;;;;;10.15;5.70;;;;;;;-146.27;65.04;47039.47;5076241;28;20026;-74
2024/01/10 05:57:51;;;;;;;8.93;5.15;;;;;;;-146.27;64.15;47053.41;5064081;28;20041;-72
2024/01/10 06:00:16;;;;;;;11.07;5.53;;;;;;;-146.27;64.37;47057.38;5070558;28;20113;-72
2024/01/10 06:02:42;;;;;;;14.32;5.35;;;;;;;-146.27;64.33;47057.38;5069622;28;20021;-71
2024/01/10 06:05:09;;;;;;;9.55;5.47;;;;;;;-146.27;63.95;47011.59;5073922;28;20023;-71
2024/01/10 06:07:39;;;;;;;11.98;5.82;;;;;;;-146.27;63.92;47049.41;5071215;28;20059;-71
2024/01/10 06:10:05;;;;;;;10.40;5.57;;;;;;;-146.27;64.80;47041.47;5071887;28;20020;-70
2024/01/10 06:12:31;;;;;;;11.63;5.32;;;;;;;-146.27;63.73;47033.50;5069912;28;20463;-71
2024/01/10 06:14:57;;;;;;;11.90;6.10;;;;;;;-146.27;63.87;47045.44;5078485;28;20056;-72
2024/01/10 06:17:23;;;;;;;10.27;5.75;;;;;;;-146.27;63.58;47049.41;5059922;28;20031;-71
2024/01/10 06:19:49;;;;;;;6.82;4.65;;;;;;;-146.27;64.13;47041.47;5065832;28;20020;-71
2024/01/10 06:22:16;;;;;;;10.23;5.68;;;;;;;-146.27;63.93;47045.44;5070051;28;20032;-72
2024/01/10 06:24:41;;;;;;;10.63;5.32;;;;;;;-146.27;63.79;47025.53;5066336;28;20727;-72
2024/01/10 06:27:08;;;;;;;9.60;5.88;;;;;;;-146.27;64.01;47065.34;5074740;28;20081;-71
2024/01/10 06:29:33;;;;;;;10.93;5.47;;;;;;;-146.27;63.95;47047.44;5065223;28;20077;-71
2024/01/10 06:32:00;;;;;;;9.55;5.20;;;;;;;-146.27;63.63;47057.38;5068586;28;20041;-72
2024/01/10 06:34:26;;;;;;;8.35;4.68;;;;;;;-146.27;63.53;47033.50;5075113;28;20056;-72
2024/01/10 06:36:52;;;;;;;8.85;5.20;;;;;;;-146.27;63.19;47051.41;5074472;28;20510;-72
2024/01/10 06:39:19;;;;;;;9.57;5.10;;;;;;;-146.27;63.68;47051.41;5076119;28;20488;-72
2024/01/10 06:41:48;;;;;;;10.55;4.90;;;;;;;-146.27;63.19;47045.44;5074368;28;20032;-73
2024/01/10 06:44:14;;;;;;;10.60;5.18;;;;;;;-146.27;63.48;47069.34;5064590;28;20036;-71
2024/01/10 06:46:39;;;;;;;8.15;4.45;;;;;;;-146.27;63.21;47057.38;5075923;28;20028;-71
2024/01/10 06:49:07;;;;;;;8.23;4.57;;;;;;;-146.27;62.73;47045.44;5068502;28;20542;-72
2024/01/10 06:51:32;;;;;;;10.07;5.63;;;;;;;-146.27;62.31;47041.47;5067198;28;20081;-70
2024/01/10 06:54:03;;;;;;;8.38;5.10;;;;;;;-146.27;62.25;47063.34;5073660;28;20028;-72
2024/01/10 06:56:29;;;;;;;10.75;4.95;;;;;;;-146.27;62.29;47081.28;5061450;28;20128;-71
2024/01/10 06:58:55;;;;;;;10.40;4.65;;;;;;;-146.27;61.69;47053.41;5065969;28;20024;-72
2024/01/10 07:01:21;;;;;;;8.40;4.90;;;;;;;-146.27;61.39;47049.41;5070972;28;20045;-73
2024/01/10 07:03:47;;;;;;;7.95;4.38;;;;;;;-146.27;61.34;47049.41;5068928;28;20021;-71
2024/01/10 07:06:16;;;;;;;9.50;5.00;;;;;;;-146.27;61.02;47073.31;5055341;28;20036;-73
2024/01/10 07:08:42;;;;;;;7.25;4.70;;;;;;;-146.27;61.10;47073.31;5065478;28;20032;-72
2024/01/10 07:11:08;;;;;;;9.43;4.82;;;;;;;-146.27;60.67;47063.34;5068677;28;20043;-73
2024/01/10 07:13:34;;;;;;;12.18;4.95;;;;;;;-146.27;60.11;47057.38;5061781;28;20024;-72
2024/01/10 07:16:01;;;;;;;8.35;4.40;;;;;;;-146.27;59.64;47049.41;5070314;28;20046;-73
2024/01/10 07:18:28;;;;;;;8.00;4.60;;;;;;;-146.27;59.67;47073.31;5066444;28;20025;-71
2024/01/10 07:20:53;;;;;;;8.23;4.35;;;;;;;-146.27;59.96;47043.44;5056789;28;20031;-69
2024/01/10 07:23:19;;;;;;;8.48;4.57;;;;;;;-146.27;60.28;47063.34;5067973;28;20031;-70
2024/01/10 07:25:44;;;;;;;7.13;4.35;;;;;;;-146.27;59.61;47065.34;5062634;28;20051;-71
2024/01/10 07:28:10;;;;;;;10.15;4.30;;;;;;;-146.27;60.87;47067.34;5065105;28;20077;-72
2024/01/10 07:30:35;;;;;;;9.30;4.25;;;;;;;-146.27;60.23;47057.38;5068982;28;20024;-72
2024/01/10 07:33:01;;;;;;;8.00;4.18;;;;;;;-146.27;60.02;47073.31;5068432;28;20028;-74
2024/01/10 07:35:27;;;;;;;11.75;4.35;;;;;;;-146.27;59.75;47041.47;5069563;28;20103;-73
2024/01/10 07:37:52;;;;;;;10.57;5.28;;;;;;;-146.27;60.22;47081.28;5065652;28;20455;-74
2024/01/10 07:40:18;;;;;;;9.52;4.65;;;;;;;-146.27;59.66;47091.22;5068488;28;20051;-69
2024/01/10 07:42:43;;;;;;;8.52;4.95;;;;;;;-146.27;60.65;47085.25;5085180;28;20024;-71
2024/01/10 07:45:09;;;;;;;11.23;4.38;;;;;;;-146.27;60.29;47065.34;5074543;28;20036;-71
2024/01/10 07:47:37;;;;;;;9.93;4.90;;;;;;;-146.27;60.87;47051.41;5085631;28;20036;-71
2024/01/10 07:50:07;;;;;;;7.70;4.45;;;;;;;-146.27;61.50;47053.41;5064979;28;20021;-71
2024/01/10 07:52:33;;;;;;;15.50;5.60;;;;;;;-146.27;61.45;47061.38;5071035;28;20339;-70
2024/01/10 07:55:00;;;;;;;8.68;5.03;;;;;;;-146.27;61.22;47061.38;5075177;28;20016;-70
2024/01/10 07:57:26;;;;;;;9.02;5.07;;;;;;;-146.27;61.29;47093.22;5076628;28;20024;-73
2024/01/10 07:59:52;;;;;;;10.85;4.93;;;;;;;-146.27;61.93;47109.16;5072316;28;20025;-72
2024/01/10 08:02:17;;;;;;;11.13;4.70;;;;;;;-146.27;61.63;47061.38;5071072;28;20392;-71
2024/01/10 08:04:43;;;;;;;8.85;4.43;;;;;;;-146.27;60.70;47087.25;5071374;28;20044;-72
2024/01/10 08:07:08;;;;;;;7.93;4.82;;;;;;;-146.27;61.07;47081.28;5066497;28;20304;-72
2024/01/10 08:09:34;;;;;;;6.50;4.10;;;;;;;-146.27;61.01;47083.28;5061615;28;20031;-71
2024/01/10 08:11:59;;;;;;;9.88;4.80;;;;;;;-146.27;60.51;47109.16;5071453;28;20043;-73
2024/01/10 08:14:25;;;;;;;8.32;4.10;;;;;;;-146.27;61.57;47093.22;5070933;28;20473;-71
2024/01/10 08:16:53;;;;;;;7.80;4.55;;;;;;;-146.27;60.84;47087.25;5070317;28;20484;-71
2024/01/10 08:19:18;;;;;;;9.65;5.05;;;;;;;-146.27;60.42;47133.03;5070548;28;20052;-75
2024/01/10 08:21:43;;;;;;;9.98;5.22;;;;;;;-146.27;60.92;47111.16;5074703;28;20852;-72
2024/01/10 08:24:09;;;;;;;10.13;4.93;;;;;;;-146.27;60.98;47121.09;5064792;28;20037;-71
2024/01/10 08:26:34;;;;;;;12.88;5.38;;;;;;;-146.27;60.90;47113.13;5059847;28;20035;-72
2024/01/10 08:29:00;;;;;;;13.40;5.32;;;;;;;-146.27;60.80;47111.16;5062463;28;20044;-73
2024/01/10 08:31:26;;;;;;;7.07;4.35;;;;;;;-146.27;61.04;47137.03;5067148;28;20111;-71
2024/01/10 08:33:52;;;;;;;13.48;5.60;;;;;;;-146.27;60.81;47101.19;5068146;28;20085;-71
2024/01/10 08:36:17;;;;;;;13.45;5.32;;;;;;;-146.27;59.94;47145.00;5066983;28;20024;-69
2024/01/10 08:38:43;;;;;;;8.80;4.97;;;;;;;-146.27;59.38;47141.00;5068615;28;20039;-74
2024/01/10 08:41:11;;;;;;;9.20;4.75;;;;;;;-146.27;59.00;47168.88;5069531;28;20056;-72
2024/01/10 08:43:36;;;;;;;9.80;4.63;;;;;;;-146.27;58.99;47164.91;5062942;28;20508;-73
2024/01/10 08:46:02;;;;;;;6.97;4.20;;;;;;;-146.27;58.87;47160.91;5070419;28;20104;-74
2024/01/10 08:48:27;;;;;;;7.82;4.45;;;;;;;-146.27;58.64;47182.81;5070970;28;20021;-74
2024/01/10 08:51:01;;;;;;;9.60;4.43;;;;;;;-146.27;58.50;47172.88;5067045;28;20427;-76
2024/01/10 08:53:26;;;;;;;10.05;3.88;;;;;;;-146.27;58.16;47170.88;5065072;28;20059;-71
2024/01/10 08:55:52;;;;;;;7.28;4.05;;;;;;;-146.27;58.14;47152.97;5068435;28;20320;-71
2024/01/10 08:58:20;;;;;;;7.47;4.60;;;;;;;-146.27;58.21;47188.78;5068725;28;20069;-74
2024/01/10 09:00:45;;;;;;;6.95;3.70;;;;;;;-146.27;57.52;47196.75;5060204;28;20044;-74
2024/01/10 09:03:12;;;;;;;5.47;3.70;;;;;;;-146.27;56.53;47188.78;5069608;28;20048;-72
2024/01/10 09:05:38;;;;;;;9.05;4.25;;;;;;;-146.27;56.27;47184.81;5067974;28;20085;-69
2024/01/10 09:08:03;;;;;;;7.85;4.10;;;;;;;-146.27;55.85;47200.75;5068931;28;20029;-70
2024/01/10 09:10:28;;;;;;;6.25;3.90;;;;;;;-146.27;54.93;47192.78;5057565;28;20404;-71
2024/01/10 09:12:54;;;;;;;9.48;4.32;;;;;;;-146.27;54.61;47200.75;5049989;28;20436;-72
2024/01/10 09:15:20;;;;;;;8.63;3.72;;;;;;;-146.27;54.33;47196.75;5070253;28;20105;-70
2024/01/10 09:17:45;;;;;;;9.70;4.07;;;;;;;-146.27;53.60;47198.75;5066790;28;20028;-70
2024/01/10 09:20:12;;;;;;;7.22;3.38;;;;;;;-146.27;53.12;47208.72;5068706;28;20078;-70
2024/01/10 09:22:40;;;;;;;9.02;3.63;;;;;;;-146.27;53.25;47226.63;5069816;28;20023;-70
2024/01/10 09:25:06;;;;;;;8.60;4.32;;;;;;;-146.27;52.95;47196.75;5067490;28;20510;-70
2024/01/10 09:27:35;;;;;;;10.73;4.88;;;;;;;-146.27;52.32;47206.72;5064044;28;20027;-71
2024/01/10 09:30:08;;;;;;;8.63;4.45;;;;;;;-146.27;51.83;47208.72;5064685;28;20060;-71
2024/01/10 09:32:33;;;;;;;9.63;4.63;;;;;;;-146.27;52.05;47232.59;5065570;28;20021;-72
2024/01/10 09:34:59;;;;;;;5.35;3.53;;;;;;;-146.27;51.83;47218.66;5066349;28;20051;-71
2024/01/10 09:37:24;;;;;;;5.10;3.38;;;;;;;-146.27;50.65;47220.66;5069487;28;20028;-70
2024/01/10 09:39:49;;;;;;;9.25;4.13;;;;;;;-146.27;50.70;47216.66;5067611;28;20020;-70
2024/01/10 09:42:15;;;;;;;7.88;3.83;;;;;;;-146.27;49.98;47230.59;5069402;28;20026;-70
2024/01/10 09:44:41;;;;;;;8.60;4.22;;;;;;;-146.27;49.38;47216.66;5067673;28;20518;-71
2024/01/10 09:47:08;;;;;;;8.95;3.70;;;;;;;-146.27;49.80;47212.69;5069676;28;20044;-70
2024/01/10 09:49:34;;;;;;;8.63;4.22;;;;;;;-146.27;49.26;47236.59;5067805;28;20538;-71
2024/01/10 09:52:04;;;;;;;8.60;4.18;;;;;;;-146.27;48.07;47232.59;5070441;28;20021;-70
2024/01/10 09:54:31;;;;;;;9.07;4.07;;;;;;;-146.27;47.68;47260.47;5068714;28;20051;-70
2024/01/10 09:57:09;;;;;;;10.82;4.05;;;;;;;-146.27;46.76;47248.53;5069702;28;20024;-73
2024/01/10 09:59:35;;;;;;;7.72;4.07;;;;;;;-146.27;45.10;47256.50;5066555;28;20052;-72
2024/01/10 10:02:04;;;;;;;10.30;4.05;;;;;;;-146.27;45.07;47246.53;5068356;28;20044;-70
2024/01/10 10:04:30;;;;;;;6.20;3.70;;;;;;;-146.27;43.88;47260.47;5063362;28;20028;-71
2024/01/10 10:07:00;;;;;;;8.57;4.10;;;;;;;-146.27;43.66;47246.53;5062291;28;20047;-69
2024/01/10 10:09:26;;;;;;;7.63;4.35;;;;;;;-146.27;43.12;47262.47;5064328;28;20446;-69
2024/01/10 10:11:55;;;;;;;8.30;3.90;;;;;;;-146.27;42.61;47296.31;5068984;28;20108;-70
2024/01/10 10:14:20;;;;;;;8.05;4.30;;;;;;;-146.27;42.81;47264.47;5065127;28;20044;-71
2024/01/10 10:16:46;;;;;;;7.32;3.75;;;;;;;-146.27;42.01;47288.34;5068682;28;20554;-72
2024/01/10 10:19:12;;;;;;;6.63;4.10;;;;;;;-146.27;41.60;47276.41;5068129;28;20021;-70
2024/01/10 10:21:39;;;;;;;7.72;4.05;;;;;;;-146.27;41.42;47260.47;5063343;28;20040;-70
2024/01/10 10:24:05;;;;;;;7.40;3.97;;;;;;;-146.27;40.78;47292.34;5069634;28;20365;-71
2024/01/10 10:26:32;;;;;;;7.55;3.83;;;;;;;-146.27;40.38;47304.28;5068342;28;20023;-70
2024/01/10 10:28:58;;;;;;;7.25;3.63;;;;;;;-146.27;39.42;47274.41;5056902;28;20095;-70
2024/01/10 10:31:24;;;;;;;6.68;3.75;;;;;;;-146.27;39.19;47286.38;5069482;28;20116;-72
2024/01/10 10:33:53;;;;;;;5.53;3.22;;;;;;;-146.27;37.75;47268.44;5069343;28;20039;-69
2024/01/10 10:36:20;;;;;;;7.13;3.92;;;;;;;-146.27;37.76;47320.22;5069183;28;20040;-70
2024/01/10 10:38:48;;;;;;;7.05;4.18;;;;;;;-146.27;36.42;47308.25;5071394;28;20502;-70
2024/01/10 10:41:13;;;;;;;8.48;4.43;;;;;;;-146.27;36.19;47348.09;5071744;28;20029;-70
2024/01/10 10:43:40;;;;;;;8.82;3.85;;;;;;;-146.27;36.28;47292.34;5056425;28;20059;-70
2024/01/10 10:46:06;;;;;;;7.15;3.85;;;;;;;-146.27;34.83;47330.16;5053079;28;20031;-69
2024/01/10 10:48:35;;;;;;;8.48;4.15;;;;;;;-146.27;35.02;47354.06;5063970;28;20016;-71
2024/01/10 10:51:24;;;;;;;7.32;3.85;;;;;;;-146.27;34.33;47334.16;5071337;28;20459;-69
2024/01/10 10:53:49;;;;;;;6.82;3.92;;;;;;;-146.27;34.16;47350.09;5072504;28;20035;-70
2024/01/10 10:56:15;;;;;;;9.55;4.15;;;;;;;-146.27;33.95;47352.06;5087441;28;20036;-70
2024/01/10 10:58:45;;;;;;;7.40;3.70;;;;;;;-146.27;33.15;47389.91;5072374;28;20028;-69
2024/01/10 11:01:12;;;;;;;5.32;3.78;;;;;;;-146.27;32.80;47387.91;5071390;28;20472;-70
2024/01/10 11:03:40;;;;;;;9.35;4.70;;;;;;;-146.27;32.78;47377.97;5071400;28;20029;-70
2024/01/10 11:06:06;;;;;;;6.60;3.95;;;;;;;-146.27;33.18;47375.97;5073732;28;20032;-70
2024/01/10 11:08:46;;;;;;;8.57;4.47;;;;;;;-146.27;33.11;47399.88;5085265;28;20473;-70
2024/01/10 11:11:25;;;;;;;8.07;4.43;;;;;;;-146.27;32.72;47391.91;5071026;28;20024;-70